sensor_id;sensor_type;location;lat;lon;timestamp;pressure;altitude;pressure_sealevel;temperature;humidity
39699;BME280;25372;50.582;12.250;2023-02-28T00:03:33;101193.28;;;-1.63;100.00
39699;BME280;25372;50.582;12.250;2023-02-28T00:13:56;101192.19;;;-1.77;100.00
39699;BME280;25372;50.582;12.250;2023-02-28T00:24:16;101190.84;;;-2.04;100.00
39699;BME280;25372;50.582;12.250;2023-02-28T00:34:38;101191.81;;;-2.07;100.00
39699;BME280;25372;50.582;12.250;2023-02-28T00:44:59;101195.88;;;-2.20;100.00
39699;BME280;25372;50.582;12.250;2023-02-28T00:55:21;101194.09;;;-1.99;100.00
39699;BME280;25372;50.582;12.250;2023-02-28T01:05:42;101178.66;;;-2.23;100.00
39699;BME280;25372;50.582;12.250;2023-02-28T01:16:05;101191.63;;;-2.42;100.00
39699;BME280;25372;50.582;12.250;2023-02-28T01:26:27;101180.91;;;-2.34;100.00
39699;BME280;25372;50.582;12.250;2023-02-28T01:36:50;101183.94;;;-2.24;100.00
39699;BME280;25372;50.582;12.250;2023-02-28T01:47:13;101185.09;;;-2.32;100.00
39699;BME280;25372;50.582;12.250;2023-02-28T01:57:38;101182.34;;;-2.48;100.00
39699;BME280;25372;50.582;12.250;2023-02-28T02:08:03;101171.47;;;-2.56;100.00
39699;BME280;25372;50.582;12.250;2023-02-28T02:18:31;101160.97;;;-2.34;100.00
39699;BME280;25372;50.582;12.250;2023-02-28T02:29:11;101154.88;;;-2.33;100.00
39699;BME280;25372;50.582;12.250;2023-02-28T02:39:47;101153.59;;;-2.43;100.00
39699;BME280;25372;50.582;12.250;2023-02-28T02:50:14;101161.63;;;-2.49;100.00
39699;BME280;25372;50.582;12.250;2023-02-28T03:00:39;101171.66;;;-2.60;100.00
39699;BME280;25372;50.582;12.250;2023-02-28T03:11:04;101158.63;;;-2.59;100.00
39699;BME280;25372;50.582;12.250;2023-02-28T03:21:34;101155.88;;;-2.56;100.00
39699;BME280;25372;50.582;12.250;2023-02-28T03:31:59;101157.75;;;-3.21;100.00
39699;BME280;25372;50.582;12.250;2023-02-28T03:42:26;101164.41;;;-3.36;100.00
39699;BME280;25372;50.582;12.250;2023-02-28T03:52:50;101169.50;;;-3.79;100.00
39699;BME280;25372;50.582;12.250;2023-02-28T04:03:13;101176.44;;;-4.03;100.00
39699;BME280;25372;50.582;12.250;2023-02-28T04:13:34;101202.00;;;-4.17;100.00
39699;BME280;25372;50.582;12.250;2023-02-28T04:23:56;101204.50;;;-4.40;100.00
39699;BME280;25372;50.582;12.250;2023-02-28T04:34:20;101219.13;;;-4.64;100.00
39699;BME280;25372;50.582;12.250;2023-02-28T04:44:42;101216.50;;;-4.62;100.00
39699;BME280;25372;50.582;12.250;2023-02-28T04:55:04;101221.00;;;-4.94;100.00
39699;BME280;25372;50.582;12.250;2023-02-28T05:05:26;101222.72;;;-4.68;100.00
39699;BME280;25372;50.582;12.250;2023-02-28T05:15:47;101232.16;;;-4.94;100.00
39699;BME280;25372;50.582;12.250;2023-02-28T05:26:09;101238.16;;;-4.92;100.00
39699;BME280;25372;50.582;12.250;2023-02-28T05:36:30;101247.25;;;-5.06;100.00
39699;BME280;25372;50.582;12.250;2023-02-28T05:46:52;101240.44;;;-5.09;100.00
39699;BME280;25372;50.582;12.250;2023-02-28T05:57:13;101243.88;;;-5.37;100.00
39699;BME280;25372;50.582;12.250;2023-02-28T06:07:35;101255.84;;;-5.06;100.00
39699;BME280;25372;50.582;12.250;2023-02-28T06:17:56;101258.69;;;-4.87;100.00
39699;BME280;25372;50.582;12.250;2023-02-28T06:28:19;101273.06;;;-5.05;100.00
39699;BME280;25372;50.582;12.250;2023-02-28T06:38:41;101282.75;;;-4.85;100.00
39699;BME280;25372;50.582;12.250;2023-02-28T06:49:03;101302.16;;;-4.71;100.00
39699;BME280;25372;50.582;12.250;2023-02-28T06:59:24;101308.06;;;-4.95;100.00
39699;BME280;25372;50.582;12.250;2023-02-28T07:09:46;101319.25;;;-3.89;100.00
39699;BME280;25372;50.582;12.250;2023-02-28T07:20:08;101320.03;;;-2.93;100.00
39699;BME280;25372;50.582;12.250;2023-02-28T07:30:30;101294.47;;;-1.98;100.00
39699;BME280;25372;50.582;12.250;2023-02-28T07:40:51;101311.50;;;-2.53;100.00
39699;BME280;25372;50.582;12.250;2023-02-28T07:51:13;101308.22;;;-2.36;100.00
39699;BME280;25372;50.582;12.250;2023-02-28T08:01:34;101301.19;;;-1.73;100.00
39699;BME280;25372;50.582;12.250;2023-02-28T08:11:56;101302.63;;;-1.28;100.00
39699;BME280;25372;50.582;12.250;2023-02-28T08:22:16;101297.09;;;-0.84;100.00
39699;BME280;25372;50.582;12.250;2023-02-28T08:32:39;101297.00;;;-1.00;94.29
39699;BME280;25372;50.582;12.250;2023-02-28T08:42:59;101295.75;;;-0.56;87.66
39699;BME280;25372;50.582;12.250;2023-02-28T08:53:22;101299.03;;;0.16;82.50
39699;BME280;25372;50.582;12.250;2023-02-28T09:03:44;101290.03;;;0.87;77.49
39699;BME280;25372;50.582;12.250;2023-02-28T09:14:06;101290.69;;;1.23;73.79
39699;BME280;25372;50.582;12.250;2023-02-28T09:24:27;101297.56;;;1.24;72.30
39699;BME280;25372;50.582;12.250;2023-02-28T09:34:49;101285.06;;;0.50;69.89
39699;BME280;25372;50.582;12.250;2023-02-28T09:45:22;101262.66;;;0.30;71.29
39699;BME280;25372;50.582;12.250;2023-02-28T09:55:47;101278.94;;;0.83;68.82
39699;BME280;25372;50.582;12.250;2023-02-28T10:06:13;101259.41;;;1.37;61.02
39699;BME280;25372;50.582;12.250;2023-02-28T10:16:40;101266.16;;;1.25;64.45
39699;BME280;25372;50.582;12.250;2023-02-28T10:27:13;101274.72;;;0.81;61.08
39699;BME280;25372;50.582;12.250;2023-02-28T10:37:37;101274.53;;;1.00;65.98
39699;BME280;25372;50.582;12.250;2023-02-28T10:48:01;101282.94;;;1.21;63.63
39699;BME280;25372;50.582;12.250;2023-02-28T10:58:27;101268.91;;;0.76;61.93
39699;BME280;25372;50.582;12.250;2023-02-28T11:08:50;101252.59;;;0.72;63.71
39699;BME280;25372;50.582;12.250;2023-02-28T11:19:19;101241.31;;;1.18;62.88
39699;BME280;25372;50.582;12.250;2023-02-28T11:29:46;101227.56;;;1.75;59.67
39699;BME280;25372;50.582;12.250;2023-02-28T11:40:13;101226.78;;;1.73;60.53
39699;BME280;25372;50.582;12.250;2023-02-28T11:50:52;101215.72;;;1.39;61.51
39699;BME280;25372;50.582;12.250;2023-02-28T12:01:38;101214.00;;;1.24;59.08
39699;BME280;25372;50.582;12.250;2023-02-28T12:12:06;101207.53;;;1.60;60.83
39699;BME280;25372;50.582;12.250;2023-02-28T12:22:35;101210.19;;;1.74;60.76
39699;BME280;25372;50.582;12.250;2023-02-28T12:33:04;101206.47;;;1.92;62.34
39699;BME280;25372;50.582;12.250;2023-02-28T12:43:32;101196.88;;;2.35;57.55
39699;BME280;25372;50.582;12.250;2023-02-28T12:54:00;101195.59;;;2.55;59.32
39699;BME280;25372;50.582;12.250;2023-02-28T13:04:44;101184.75;;;2.61;59.90
39699;BME280;25372;50.582;12.250;2023-02-28T13:15:12;101191.88;;;2.17;58.92
39699;BME280;25372;50.582;12.250;2023-02-28T13:25:51;101196.28;;;1.88;59.62
39699;BME280;25372;50.582;12.250;2023-02-28T13:36:26;101185.56;;;2.20;61.27
39699;BME280;25372;50.582;12.250;2023-02-28T13:47:22;101175.91;;;1.93;58.86
39699;BME280;25372;50.582;12.250;2023-02-28T13:57:56;101170.69;;;1.64;59.51
39699;BME280;25372;50.582;12.250;2023-02-28T14:08:22;101170.41;;;1.83;59.31
39699;BME280;25372;50.582;12.250;2023-02-28T14:18:49;101152.47;;;2.06;59.88
39699;BME280;25372;50.582;12.250;2023-02-28T14:29:32;101133.19;;;2.21;60.03
39699;BME280;25372;50.582;12.250;2023-02-28T14:39:55;101129.19;;;2.16;58.23
39699;BME280;25372;50.582;12.250;2023-02-28T14:50:20;101134.06;;;1.93;60.87
39699;BME280;25372;50.582;12.250;2023-02-28T15:00:48;101150.97;;;1.73;59.43
39699;BME280;25372;50.582;12.250;2023-02-28T15:11:15;101143.13;;;1.59;60.60
39699;BME280;25372;50.582;12.250;2023-02-28T15:21:44;101149.31;;;1.58;60.56
39699;BME280;25372;50.582;12.250;2023-02-28T15:32:23;101140.63;;;1.43;62.54
39699;BME280;25372;50.582;12.250;2023-02-28T15:42:58;101141.13;;;1.04;65.03
39699;BME280;25372;50.582;12.250;2023-02-28T15:53:23;101148.66;;;0.64;67.53
39699;BME280;25372;50.582;12.250;2023-02-28T16:03:46;101153.47;;;0.40;69.48
39699;BME280;25372;50.582;12.250;2023-02-28T16:14:14;101137.91;;;0.07;71.59
39699;BME280;25372;50.582;12.250;2023-02-28T16:24:36;101145.59;;;-0.40;74.40
39699;BME280;25372;50.582;12.250;2023-02-28T16:35:00;101148.19;;;-0.91;76.25
39699;BME280;25372;50.582;12.250;2023-02-28T16:45:23;101150.78;;;-1.26;78.71
39699;BME280;25372;50.582;12.250;2023-02-28T16:55:45;101152.09;;;-1.90;84.27
39699;BME280;25372;50.582;12.250;2023-02-28T17:06:17;101163.84;;;-2.40;97.59
39699;BME280;25372;50.582;12.250;2023-02-28T17:16:40;101171.53;;;-2.78;100.00
39699;BME280;25372;50.582;12.250;2023-02-28T17:27:02;101191.44;;;-2.78;100.00
39699;BME280;25372;50.582;12.250;2023-02-28T17:37:24;101189.28;;;-2.89;100.00
39699;BME280;25372;50.582;12.250;2023-02-28T17:47:47;101178.56;;;-3.02;100.00
39699;BME280;25372;50.582;12.250;2023-02-28T17:58:11;101177.88;;;-3.28;100.00
39699;BME280;25372;50.582;12.250;2023-02-28T18:08:32;101162.31;;;-3.28;100.00
39699;BME280;25372;50.582;12.250;2023-02-28T18:18:56;101173.44;;;-3.46;100.00
39699;BME280;25372;50.582;12.250;2023-02-28T18:29:19;101172.47;;;-3.44;100.00
39699;BME280;25372;50.582;12.250;2023-02-28T18:39:43;101157.66;;;-3.62;100.00
39699;BME280;25372;50.582;12.250;2023-02-28T18:50:04;101173.25;;;-3.64;100.00
39699;BME280;25372;50.582;12.250;2023-02-28T19:00:26;101144.13;;;-3.93;100.00
39699;BME280;25372;50.582;12.250;2023-02-28T19:10:47;101170.47;;;-4.29;100.00
39699;BME280;25372;50.582;12.250;2023-02-28T19:21:11;101184.81;;;-4.20;100.00
39699;BME280;25372;50.582;12.250;2023-02-28T19:31:32;101194.34;;;-3.97;100.00
39699;BME280;25372;50.582;12.250;2023-02-28T19:41:54;101191.34;;;-4.10;100.00
39699;BME280;25372;50.582;12.250;2023-02-28T19:52:15;101190.88;;;-3.96;100.00
39699;BME280;25372;50.582;12.250;2023-02-28T20:02:37;101208.13;;;-4.20;100.00
39699;BME280;25372;50.582;12.250;2023-02-28T20:12:58;101213.16;;;-4.41;100.00
39699;BME280;25372;50.582;12.250;2023-02-28T20:23:20;101214.53;;;-4.30;100.00
39699;BME280;25372;50.582;12.250;2023-02-28T20:33:42;101204.69;;;-4.46;100.00
39699;BME280;25372;50.582;12.250;2023-02-28T20:44:05;101214.91;;;-4.41;100.00
39699;BME280;25372;50.582;12.250;2023-02-28T20:54:26;101217.03;;;-4.52;100.00
39699;BME280;25372;50.582;12.250;2023-02-28T21:04:50;101224.47;;;-4.95;100.00
39699;BME280;25372;50.582;12.250;2023-02-28T21:15:10;101220.66;;;-4.58;100.00
39699;BME280;25372;50.582;12.250;2023-02-28T21:25:32;101217.91;;;-4.79;100.00
39699;BME280;25372;50.582;12.250;2023-02-28T21:35:59;101203.94;;;-4.48;100.00
39699;BME280;25372;50.582;12.250;2023-02-28T21:46:23;101218.97;;;-4.59;100.00
39699;BME280;25372;50.582;12.250;2023-02-28T21:56:44;101214.16;;;-4.97;100.00
39699;BME280;25372;50.582;12.250;2023-02-28T22:07:06;101215.13;;;-4.99;100.00
39699;BME280;25372;50.582;12.250;2023-02-28T22:17:27;101208.78;;;-4.89;100.00
39699;BME280;25372;50.582;12.250;2023-02-28T22:27:49;101213.38;;;-4.99;100.00
39699;BME280;25372;50.582;12.250;2023-02-28T22:38:10;101165.31;;;-5.31;100.00
39699;BME280;25372;50.582;12.250;2023-02-28T22:48:32;101216.13;;;-5.32;100.00
39699;BME280;25372;50.582;12.250;2023-02-28T22:58:55;101217.75;;;-5.56;100.00
39699;BME280;25372;50.582;12.250;2023-02-28T23:09:17;101215.66;;;-5.43;100.00
39699;BME280;25372;50.582;12.250;2023-02-28T23:19:40;101228.13;;;-5.57;100.00
39699;BME280;25372;50.582;12.250;2023-02-28T23:30:02;101231.34;;;-5.51;100.00
39699;BME280;25372;50.582;12.250;2023-02-28T23:40:23;101242.41;;;-5.75;100.00
39699;BME280;25372;50.582;12.250;2023-02-28T23:50:45;101257.22;;;-6.12;100.00
